Terminal Aerodrome Forecast
Issued by NWS Duluth, MN

Home | Current Version | Previous Version | Text Only | Print | Product List | Glossary On
Versions: 1 2 3 4 5 6 7 8 9 10 11 12 13 14 15 16 17 18 19 20 21 22
503
FTUS43 KDLH 221941 AAA
TAFINL
TAF AMD
KINL 221941Z 2220/2318 36007KT 3SM -SN BR OVC005
     FM222100 34009KT P6SM VCSH OVC015
     FM230000 34007KT P6SM BKN025=

USA.gov is the U.S. government's official web portal to all federal, state and local government web resources and services.